sensor_id;sensor_type;location;lat;lon;timestamp;pressure;altitude;pressure_sealevel;temperature;humidity
63019;BME280;49105;46.046;10.760;2023-02-11T00:01:07;97539.81;;;-2.47;54.68
63019;BME280;49105;46.046;10.760;2023-02-11T00:03:33;97540.72;;;-2.66;54.37
63019;BME280;49105;46.046;10.760;2023-02-11T00:06:00;97545.22;;;-2.68;55.07
63019;BME280;49105;46.046;10.760;2023-02-11T00:08:26;97546.44;;;-2.63;54.81
63019;BME280;49105;46.046;10.760;2023-02-11T00:10:56;97554.59;;;-2.58;54.69
63019;BME280;49105;46.046;10.760;2023-02-11T00:13:22;97553.25;;;-2.62;54.01
63019;BME280;49105;46.046;10.760;2023-02-11T00:15:48;97542.41;;;-2.75;55.25
63019;BME280;49105;46.046;10.760;2023-02-11T00:18:14;97539.69;;;-2.83;55.50
63019;BME280;49105;46.046;10.760;2023-02-11T00:20:39;97541.31;;;-2.82;54.55
63019;BME280;49105;46.046;10.760;2023-02-11T00:23:05;97529.44;;;-2.85;55.11
63019;BME280;49105;46.046;10.760;2023-02-11T00:25:31;97535.34;;;-2.92;55.55
63019;BME280;49105;46.046;10.760;2023-02-11T00:27:56;97530.47;;;-2.95;55.85
63019;BME280;49105;46.046;10.760;2023-02-11T00:30:22;97525.41;;;-2.97;55.80
63019;BME280;49105;46.046;10.760;2023-02-11T00:32:47;97533.06;;;-2.95;55.07
63019;BME280;49105;46.046;10.760;2023-02-11T00:35:13;97535.63;;;-2.95;55.20
63019;BME280;49105;46.046;10.760;2023-02-11T00:37:38;97536.44;;;-2.95;55.20
63019;BME280;49105;46.046;10.760;2023-02-11T00:40:04;97534.78;;;-2.86;54.90
63019;BME280;49105;46.046;10.760;2023-02-11T00:42:29;97539.69;;;-2.93;54.70
63019;BME280;49105;46.046;10.760;2023-02-11T00:44:55;97542.88;;;-3.09;55.28
63019;BME280;49105;46.046;10.760;2023-02-11T00:47:20;97535.00;;;-3.17;55.54
63019;BME280;49105;46.046;10.760;2023-02-11T00:49:46;97539.78;;;-3.12;55.69
63019;BME280;49105;46.046;10.760;2023-02-11T00:52:11;97538.94;;;-3.13;56.53
63019;BME280;49105;46.046;10.760;2023-02-11T00:54:36;97530.22;;;-3.12;56.33
63019;BME280;49105;46.046;10.760;2023-02-11T00:57:02;97531.84;;;-3.11;56.42
63019;BME280;49105;46.046;10.760;2023-02-11T00:59:27;97531.59;;;-3.08;55.27
63019;BME280;49105;46.046;10.760;2023-02-11T01:01:53;97527.88;;;-3.05;56.45
63019;BME280;49105;46.046;10.760;2023-02-11T01:07:02;97518.31;;;-2.95;55.08
63019;BME280;49105;46.046;10.760;2023-02-11T01:09:27;97516.81;;;-2.88;55.11
63019;BME280;49105;46.046;10.760;2023-02-11T01:11:53;97523.47;;;-2.85;55.41
63019;BME280;49105;46.046;10.760;2023-02-11T01:14:18;97518.69;;;-2.90;55.70
63019;BME280;49105;46.046;10.760;2023-02-11T01:16:44;97519.28;;;-3.06;55.47
63019;BME280;49105;46.046;10.760;2023-02-11T01:19:09;97520.16;;;-3.15;55.53
63019;BME280;49105;46.046;10.760;2023-02-11T01:21:35;97517.56;;;-3.15;56.37
63019;BME280;49105;46.046;10.760;2023-02-11T01:24:00;97512.66;;;-3.18;55.61
63019;BME280;49105;46.046;10.760;2023-02-11T01:26:26;97518.50;;;-3.16;56.03
63019;BME280;49105;46.046;10.760;2023-02-11T01:28:51;97517.28;;;-3.12;56.04
63019;BME280;49105;46.046;10.760;2023-02-11T01:31:17;97519.28;;;-3.06;55.33
63019;BME280;49105;46.046;10.760;2023-02-11T01:33:42;97516.16;;;-3.09;56.29
63019;BME280;49105;46.046;10.760;2023-02-11T01:36:08;97517.66;;;-3.07;56.02
63019;BME280;49105;46.046;10.760;2023-02-11T01:38:33;97522.84;;;-3.07;56.15
63019;BME280;49105;46.046;10.760;2023-02-11T01:41:05;97522.28;;;-3.01;55.74
63019;BME280;49105;46.046;10.760;2023-02-11T01:43:35;97512.88;;;-2.92;55.13
63019;BME280;49105;46.046;10.760;2023-02-11T01:46:22;97508.88;;;-2.86;55.51
63019;BME280;49105;46.046;10.760;2023-02-11T01:49:14;97508.19;;;-2.88;55.55
63019;BME280;49105;46.046;10.760;2023-02-11T01:51:46;97510.63;;;-3.24;56.36
63019;BME280;49105;46.046;10.760;2023-02-11T01:54:16;97505.88;;;-3.38;55.95
63019;BME280;49105;46.046;10.760;2023-02-11T01:57:01;97498.53;;;-3.33;56.36
63019;BME280;49105;46.046;10.760;2023-02-11T02:02:38;97493.03;;;-3.30;56.06
63019;BME280;49105;46.046;10.760;2023-02-11T02:10:27;97483.00;;;-3.33;56.49
63019;BME280;49105;46.046;10.760;2023-02-11T02:12:53;97479.16;;;-3.29;56.32
63019;BME280;49105;46.046;10.760;2023-02-11T02:15:33;97476.03;;;-3.33;56.19
63019;BME280;49105;46.046;10.760;2023-02-11T02:28:36;97467.84;;;-3.28;56.55
63019;BME280;49105;46.046;10.760;2023-02-11T02:34:05;97461.31;;;-3.32;56.48
63019;BME280;49105;46.046;10.760;2023-02-11T02:36:54;97455.34;;;-3.42;56.77
63019;BME280;49105;46.046;10.760;2023-02-11T02:39:25;97457.81;;;-3.51;56.43
63019;BME280;49105;46.046;10.760;2023-02-11T02:41:53;97450.72;;;-3.58;57.16
63019;BME280;49105;46.046;10.760;2023-02-11T02:44:20;97448.28;;;-3.60;57.26
63019;BME280;49105;46.046;10.760;2023-02-11T02:46:46;97441.88;;;-3.56;56.67
63019;BME280;49105;46.046;10.760;2023-02-11T02:49:13;97441.34;;;-3.50;56.44
63019;BME280;49105;46.046;10.760;2023-02-11T02:52:03;97438.19;;;-3.43;56.65
63019;BME280;49105;46.046;10.760;2023-02-11T03:07:58;97425.97;;;-3.70;57.70
63019;BME280;49105;46.046;10.760;2023-02-11T03:10:34;97425.44;;;-3.74;57.45
63019;BME280;49105;46.046;10.760;2023-02-11T03:13:01;97431.28;;;-3.72;57.18
63019;BME280;49105;46.046;10.760;2023-02-11T03:15:29;97428.44;;;-3.69;57.29
63019;BME280;49105;46.046;10.760;2023-02-11T03:17:59;97429.41;;;-3.70;57.51
63019;BME280;49105;46.046;10.760;2023-02-11T03:20:26;97425.84;;;-3.69;57.08
63019;BME280;49105;46.046;10.760;2023-02-11T03:23:00;97421.59;;;-3.60;57.33
63019;BME280;49105;46.046;10.760;2023-02-11T03:25:29;97417.50;;;-3.53;56.66
63019;BME280;49105;46.046;10.760;2023-02-11T03:28:06;97425.81;;;-3.50;56.85
63019;BME280;49105;46.046;10.760;2023-02-11T03:30:46;97419.41;;;-3.55;56.92
63019;BME280;49105;46.046;10.760;2023-02-11T03:33:19;97423.25;;;-3.69;57.13
63019;BME280;49105;46.046;10.760;2023-02-11T03:35:55;97421.09;;;-3.73;57.34
63019;BME280;49105;46.046;10.760;2023-02-11T03:38:27;97416.47;;;-3.70;57.31
63019;BME280;49105;46.046;10.760;2023-02-11T03:40:54;97415.88;;;-3.64;57.25
63019;BME280;49105;46.046;10.760;2023-02-11T03:43:32;97405.81;;;-3.67;57.18
63019;BME280;49105;46.046;10.760;2023-02-11T03:45:59;97403.53;;;-3.70;57.80
63019;BME280;49105;46.046;10.760;2023-02-11T03:48:32;97401.47;;;-3.76;57.87
63019;BME280;49105;46.046;10.760;2023-02-11T03:51:00;97402.72;;;-3.80;57.63
63019;BME280;49105;46.046;10.760;2023-02-11T03:53:27;97395.91;;;-3.81;57.64
63019;BME280;49105;46.046;10.760;2023-02-11T03:55:54;97402.56;;;-3.79;57.35
63019;BME280;49105;46.046;10.760;2023-02-11T03:58:21;97402.28;;;-3.76;57.63
63019;BME280;49105;46.046;10.760;2023-02-11T04:00:46;97408.84;;;-3.81;57.71
63019;BME280;49105;46.046;10.760;2023-02-11T04:03:12;97409.53;;;-3.89;57.81
63019;BME280;49105;46.046;10.760;2023-02-11T04:05:38;97410.22;;;-3.96;58.36
63019;BME280;49105;46.046;10.760;2023-02-11T04:08:03;97407.91;;;-4.00;58.24
63019;BME280;49105;46.046;10.760;2023-02-11T04:10:29;97414.19;;;-4.02;58.32
63019;BME280;49105;46.046;10.760;2023-02-11T04:12:55;97405.06;;;-4.06;58.29
63019;BME280;49105;46.046;10.760;2023-02-11T04:15:20;97395.94;;;-4.01;58.23
63019;BME280;49105;46.046;10.760;2023-02-11T04:17:46;97395.09;;;-3.91;57.92
63019;BME280;49105;46.046;10.760;2023-02-11T04:20:11;97380.66;;;-3.84;57.86
63019;BME280;49105;46.046;10.760;2023-02-11T04:22:37;97385.56;;;-3.81;57.43
63019;BME280;49105;46.046;10.760;2023-02-11T04:25:04;97388.81;;;-3.79;57.79
63019;BME280;49105;46.046;10.760;2023-02-11T04:27:30;97391.97;;;-3.85;57.61
63019;BME280;49105;46.046;10.760;2023-02-11T04:29:55;97393.59;;;-3.84;57.93
63019;BME280;49105;46.046;10.760;2023-02-11T04:32:21;97391.41;;;-3.79;57.87
63019;BME280;49105;46.046;10.760;2023-02-11T04:34:46;97385.94;;;-3.76;57.19
63019;BME280;49105;46.046;10.760;2023-02-11T04:37:12;97394.66;;;-3.87;57.70
63019;BME280;49105;46.046;10.760;2023-02-11T04:39:38;97395.81;;;-3.99;58.32
63019;BME280;49105;46.046;10.760;2023-02-11T04:42:04;97398.50;;;-4.01;58.07
63019;BME280;49105;46.046;10.760;2023-02-11T04:44:29;97383.00;;;-4.01;58.14
63019;BME280;49105;46.046;10.760;2023-02-11T04:46:55;97389.78;;;-4.00;58.08
63019;BME280;49105;46.046;10.760;2023-02-11T04:49:20;97384.63;;;-4.00;58.21
63019;BME280;49105;46.046;10.760;2023-02-11T04:51:45;97382.47;;;-3.94;57.93
63019;BME280;49105;46.046;10.760;2023-02-11T04:54:11;97382.84;;;-3.89;58.21
63019;BME280;49105;46.046;10.760;2023-02-11T04:56:37;97383.81;;;-3.90;57.97
63019;BME280;49105;46.046;10.760;2023-02-11T04:59:03;97382.97;;;-3.81;58.11
63019;BME280;49105;46.046;10.760;2023-02-11T05:01:28;97388.53;;;-3.76;57.42
63019;BME280;49105;46.046;10.760;2023-02-11T05:03:54;97392.09;;;-3.87;57.91
63019;BME280;49105;46.046;10.760;2023-02-11T05:06:20;97388.44;;;-3.94;58.12
63019;BME280;49105;46.046;10.760;2023-02-11T05:08:46;97387.09;;;-3.98;58.37
63019;BME280;49105;46.046;10.760;2023-02-11T05:11:15;97386.69;;;-4.03;58.59
63019;BME280;49105;46.046;10.760;2023-02-11T05:13:42;97394.72;;;-4.06;58.21
63019;BME280;49105;46.046;10.760;2023-02-11T05:16:07;97387.91;;;-4.17;58.50
63019;BME280;49105;46.046;10.760;2023-02-11T05:18:36;97387.25;;;-4.19;58.61
63019;BME280;49105;46.046;10.760;2023-02-11T05:21:06;97383.56;;;-4.16;58.74
63019;BME280;49105;46.046;10.760;2023-02-11T05:23:31;97383.44;;;-4.15;58.61
63019;BME280;49105;46.046;10.760;2023-02-11T05:25:58;97378.38;;;-4.07;57.94
63019;BME280;49105;46.046;10.760;2023-02-11T05:28:23;97374.84;;;-4.06;58.14
63019;BME280;49105;46.046;10.760;2023-02-11T05:30:49;97380.00;;;-4.06;58.49
63019;BME280;49105;46.046;10.760;2023-02-11T05:33:14;97377.97;;;-4.12;58.45
63019;BME280;49105;46.046;10.760;2023-02-11T05:35:39;97376.88;;;-4.09;58.53
63019;BME280;49105;46.046;10.760;2023-02-11T05:38:05;97376.59;;;-3.96;58.40
63019;BME280;49105;46.046;10.760;2023-02-11T05:40:30;97379.31;;;-3.88;57.97
63019;BME280;49105;46.046;10.760;2023-02-11T05:42:56;97378.25;;;-4.05;58.17
63019;BME280;49105;46.046;10.760;2023-02-11T05:45:21;97377.03;;;-4.11;58.08
63019;BME280;49105;46.046;10.760;2023-02-11T05:47:47;97377.97;;;-4.12;58.39
63019;BME280;49105;46.046;10.760;2023-02-11T05:50:12;97366.00;;;-4.13;58.38
63019;BME280;49105;46.046;10.760;2023-02-11T05:52:37;97358.50;;;-4.16;58.54
63019;BME280;49105;46.046;10.760;2023-02-11T05:55:03;97358.00;;;-4.19;58.60
63019;BME280;49105;46.046;10.760;2023-02-11T05:57:29;97360.03;;;-4.33;58.81
63019;BME280;49105;46.046;10.760;2023-02-11T05:59:54;97352.56;;;-4.36;58.54
63019;BME280;49105;46.046;10.760;2023-02-11T06:02:19;97366.16;;;-4.34;59.02
63019;BME280;49105;46.046;10.760;2023-02-11T06:04:45;97367.50;;;-4.30;58.89
63019;BME280;49105;46.046;10.760;2023-02-11T06:07:10;97365.88;;;-4.21;59.17
63019;BME280;49105;46.046;10.760;2023-02-11T06:09:36;97365.44;;;-4.16;58.65
63019;BME280;49105;46.046;10.760;2023-02-11T06:12:02;97356.63;;;-4.14;58.73
63019;BME280;49105;46.046;10.760;2023-02-11T06:14:27;97365.63;;;-4.28;58.66
63019;BME280;49105;46.046;10.760;2023-02-11T06:16:52;97358.81;;;-4.38;58.90
63019;BME280;49105;46.046;10.760;2023-02-11T06:19:18;97360.69;;;-4.40;59.11
63019;BME280;49105;46.046;10.760;2023-02-11T06:21:43;97358.53;;;-4.45;59.04
63019;BME280;49105;46.046;10.760;2023-02-11T06:24:09;97366.28;;;-4.45;59.24
63019;BME280;49105;46.046;10.760;2023-02-11T06:26:34;97372.00;;;-4.41;59.29
63019;BME280;49105;46.046;10.760;2023-02-11T06:29:00;97372.69;;;-4.39;59.27
63019;BME280;49105;46.046;10.760;2023-02-11T06:31:25;97370.91;;;-4.29;58.99
63019;BME280;49105;46.046;10.760;2023-02-11T06:33:51;97367.50;;;-4.20;59.27
63019;BME280;49105;46.046;10.760;2023-02-11T06:36:20;97363.97;;;-4.09;58.81
63019;BME280;49105;46.046;10.760;2023-02-11T06:38:46;97365.06;;;-4.21;58.53
63019;BME280;49105;46.046;10.760;2023-02-11T06:41:14;97369.41;;;-4.41;59.24
63019;BME280;49105;46.046;10.760;2023-02-11T06:43:40;97362.06;;;-4.46;59.16
63019;BME280;49105;46.046;10.760;2023-02-11T06:46:06;97358.53;;;-4.45;59.31
63019;BME280;49105;46.046;10.760;2023-02-11T06:48:33;97359.06;;;-4.41;59.46
63019;BME280;49105;46.046;10.760;2023-02-11T06:51:03;97359.78;;;-4.39;59.22
63019;BME280;49105;46.046;10.760;2023-02-11T06:53:30;97360.84;;;-4.32;59.50
63019;BME280;49105;46.046;10.760;2023-02-11T06:56:00;97375.41;;;-4.31;59.13
63019;BME280;49105;46.046;10.760;2023-02-11T06:58:26;97377.03;;;-4.30;59.85
63019;BME280;49105;46.046;10.760;2023-02-11T07:00:51;97379.22;;;-4.35;59.35
63019;BME280;49105;46.046;10.760;2023-02-11T07:03:16;97376.63;;;-4.35;59.83
63019;BME280;49105;46.046;10.760;2023-02-11T07:05:42;97380.03;;;-4.25;59.60
63019;BME280;49105;46.046;10.760;2023-02-11T07:08:08;97376.22;;;-4.21;59.76
63019;BME280;49105;46.046;10.760;2023-02-11T07:10:33;97371.59;;;-4.27;59.35
63019;BME280;49105;46.046;10.760;2023-02-11T07:12:58;97381.13;;;-4.28;59.66
63019;BME280;49105;46.046;10.760;2023-02-11T07:15:24;97380.28;;;-4.28;59.33
63019;BME280;49105;46.046;10.760;2023-02-11T07:17:50;97383.97;;;-4.21;59.46
63019;BME280;49105;46.046;10.760;2023-02-11T07:20:15;97371.72;;;-4.09;59.37
63019;BME280;49105;46.046;10.760;2023-02-11T07:22:41;97374.44;;;-4.01;59.49
63019;BME280;49105;46.046;10.760;2023-02-11T07:25:06;97376.06;;;-3.90;59.05
63019;BME280;49105;46.046;10.760;2023-02-11T07:27:32;97369.22;;;-3.82;59.03
63019;BME280;49105;46.046;10.760;2023-02-11T07:29:57;97382.69;;;-3.88;59.15
63019;BME280;49105;46.046;10.760;2023-02-11T07:32:22;97382.72;;;-3.97;58.88
63019;BME280;49105;46.046;10.760;2023-02-11T07:34:48;97380.97;;;-4.07;59.47
63019;BME280;49105;46.046;10.760;2023-02-11T07:37:13;97384.22;;;-4.05;59.46
63019;BME280;49105;46.046;10.760;2023-02-11T07:39:39;97391.03;;;-4.04;59.14
63019;BME280;49105;46.046;10.760;2023-02-11T07:42:04;97388.06;;;-3.99;59.53
63019;BME280;49105;46.046;10.760;2023-02-11T07:44:30;97391.69;;;-3.92;59.06
63019;BME280;49105;46.046;10.760;2023-02-11T07:46:57;97380.81;;;-3.86;59.18
63019;BME280;49105;46.046;10.760;2023-02-11T07:49:23;97390.34;;;-3.86;58.97
63019;BME280;49105;46.046;10.760;2023-02-11T07:51:48;97389.78;;;-3.80;58.92
63019;BME280;49105;46.046;10.760;2023-02-11T07:54:15;97383.09;;;-3.73;59.08
63019;BME280;49105;46.046;10.760;2023-02-11T07:56:41;97388.38;;;-3.65;59.53
63019;BME280;49105;46.046;10.760;2023-02-11T07:59:06;97384.41;;;-3.59;58.88
63019;BME280;49105;46.046;10.760;2023-02-11T08:01:32;97382.19;;;-3.54;59.43
63019;BME280;49105;46.046;10.760;2023-02-11T08:03:59;97379.88;;;-3.47;59.20
63019;BME280;49105;46.046;10.760;2023-02-11T08:06:27;97382.56;;;-3.39;58.57
63019;BME280;49105;46.046;10.760;2023-02-11T08:08:53;97384.72;;;-3.35;58.80
63019;BME280;49105;46.046;10.760;2023-02-11T08:11:26;97389.97;;;-3.44;59.14
63019;BME280;49105;46.046;10.760;2023-02-11T08:13:53;97389.97;;;-3.44;59.08
63019;BME280;49105;46.046;10.760;2023-02-11T08:16:37;97383.38;;;-3.39;59.23
63019;BME280;49105;46.046;10.760;2023-02-11T08:19:10;97374.88;;;-3.21;59.17
63019;BME280;49105;46.046;10.760;2023-02-11T08:21:36;97380.41;;;-3.07;59.62
63019;BME280;49105;46.046;10.760;2023-02-11T08:24:02;97378.25;;;-3.11;58.54
63019;BME280;49105;46.046;10.760;2023-02-11T08:26:29;97369.16;;;-3.25;59.29
63019;BME280;49105;46.046;10.760;2023-02-11T08:28:57;97371.09;;;-3.27;59.02
63019;BME280;49105;46.046;10.760;2023-02-11T08:31:31;97369.69;;;-3.21;59.95
63019;BME280;49105;46.046;10.760;2023-02-11T08:33:57;97365.13;;;-3.10;59.30
63019;BME280;49105;46.046;10.760;2023-02-11T08:36:26;97369.16;;;-2.97;59.22
63019;BME280;49105;46.046;10.760;2023-02-11T08:38:56;97364.53;;;-2.76;58.79
63019;BME280;49105;46.046;10.760;2023-02-11T08:41:24;97373.22;;;-2.50;58.57
63019;BME280;49105;46.046;10.760;2023-02-11T08:43:50;97368.84;;;-2.31;58.73
63019;BME280;49105;46.046;10.760;2023-02-11T08:46:17;97362.63;;;-2.20;57.95
63019;BME280;49105;46.046;10.760;2023-02-11T08:48:45;97358.09;;;-2.18;58.87
63019;BME280;49105;46.046;10.760;2023-02-11T08:51:17;97364.81;;;-2.08;58.78
63019;BME280;49105;46.046;10.760;2023-02-11T08:53:43;97357.78;;;-1.97;58.99
63019;BME280;49105;46.046;10.760;2023-02-11T08:56:09;97365.59;;;-1.89;58.35
63019;BME280;49105;46.046;10.760;2023-02-11T08:58:35;97365.34;;;-1.78;58.92
63019;BME280;49105;46.046;10.760;2023-02-11T09:01:01;97361.53;;;-1.66;58.63
63019;BME280;49105;46.046;10.760;2023-02-11T09:03:26;97356.91;;;-1.54;58.29
63019;BME280;49105;46.046;10.760;2023-02-11T09:05:52;97361.06;;;-1.35;58.33
63019;BME280;49105;46.046;10.760;2023-02-11T09:08:18;97355.47;;;-1.14;58.05
63019;BME280;49105;46.046;10.760;2023-02-11T09:10:44;97342.03;;;-1.02;57.82
63019;BME280;49105;46.046;10.760;2023-02-11T09:13:09;97337.84;;;-0.94;57.62
63019;BME280;49105;46.046;10.760;2023-02-11T09:15:35;97338.31;;;-0.91;57.61
63019;BME280;49105;46.046;10.760;2023-02-11T09:18:01;97342.22;;;-0.87;57.35
63019;BME280;49105;46.046;10.760;2023-02-11T09:20:26;97339.50;;;-0.77;57.34
63019;BME280;49105;46.046;10.760;2023-02-11T09:22:53;97335.94;;;-0.68;57.43
63019;BME280;49105;46.046;10.760;2023-02-11T09:25:20;97336.31;;;-0.46;57.40
63019;BME280;49105;46.046;10.760;2023-02-11T09:27:46;97332.72;;;-0.29;56.90
63019;BME280;49105;46.046;10.760;2023-02-11T09:30:11;97337.13;;;-0.13;56.31
63019;BME280;49105;46.046;10.760;2023-02-11T09:32:37;97336.63;;;-0.01;56.25
63019;BME280;49105;46.046;10.760;2023-02-11T09:35:03;97336.63;;;0.08;55.96
63019;BME280;49105;46.046;10.760;2023-02-11T09:37:28;97340.88;;;0.09;56.20
63019;BME280;49105;46.046;10.760;2023-02-11T09:39:54;97341.34;;;0.12;56.09
63019;BME280;49105;46.046;10.760;2023-02-11T09:45:07;97337.22;;;0.51;55.46
63019;BME280;49105;46.046;10.760;2023-02-11T09:47:44;97336.81;;;0.70;55.87
63019;BME280;49105;46.046;10.760;2023-02-11T09:50:25;97323.56;;;0.88;54.71
63019;BME280;49105;46.046;10.760;2023-02-11T09:53:19;97322.34;;;0.98;55.15
63019;BME280;49105;46.046;10.760;2023-02-11T09:55:54;97323.91;;;1.16;54.92
63019;BME280;49105;46.046;10.760;2023-02-11T09:58:31;97319.75;;;1.30;54.84
63019;BME280;49105;46.046;10.760;2023-02-11T10:04:06;97312.22;;;1.58;54.05
63019;BME280;49105;46.046;10.760;2023-02-11T10:06:47;97306.53;;;1.77;53.79
63019;BME280;49105;46.046;10.760;2023-02-11T10:09:21;97306.75;;;1.90;53.80
63019;BME280;49105;46.046;10.760;2023-02-11T10:12:20;97306.22;;;2.10;53.44
63019;BME280;49105;46.046;10.760;2023-02-11T10:15:15;97301.38;;;2.21;52.88
63019;BME280;49105;46.046;10.760;2023-02-11T10:17:49;97292.94;;;2.34;52.46
63019;BME280;49105;46.046;10.760;2023-02-11T10:20:38;97300.78;;;2.49;52.67
63019;BME280;49105;46.046;10.760;2023-02-11T10:23:21;97293.84;;;2.56;52.48
63019;BME280;49105;46.046;10.760;2023-02-11T10:25:50;97294.56;;;2.65;52.61
63019;BME280;49105;46.046;10.760;2023-02-11T10:28:25;97285.06;;;2.79;52.60
63019;BME280;49105;46.046;10.760;2023-02-11T10:31:00;97280.19;;;2.90;52.49
63019;BME280;49105;46.046;10.760;2023-02-11T10:36:04;97274.38;;;3.10;52.09
63019;BME280;49105;46.046;10.760;2023-02-11T10:38:30;97268.69;;;3.21;51.85
63019;BME280;49105;46.046;10.760;2023-02-11T10:40:57;97261.13;;;3.33;51.61
63019;BME280;49105;46.046;10.760;2023-02-11T10:43:25;97251.22;;;3.49;51.70
63019;BME280;49105;46.046;10.760;2023-02-11T10:45:53;97243.50;;;3.63;51.37
63019;BME280;49105;46.046;10.760;2023-02-11T10:48:42;97240.41;;;3.81;51.37
63019;BME280;49105;46.046;10.760;2023-02-11T10:53:47;97224.16;;;4.20;50.69
63019;BME280;49105;46.046;10.760;2023-02-11T10:56:21;97230.03;;;4.29;49.75
63019;BME280;49105;46.046;10.760;2023-02-11T10:59:06;97226.84;;;4.33;49.17
63019;BME280;49105;46.046;10.760;2023-02-11T11:01:45;97225.88;;;4.41;48.88
63019;BME280;49105;46.046;10.760;2023-02-11T11:04:41;97217.81;;;4.42;48.43
63019;BME280;49105;46.046;10.760;2023-02-11T11:17:25;97206.25;;;4.30;47.88
63019;BME280;49105;46.046;10.760;2023-02-11T11:20:13;97204.66;;;4.29;47.80
63019;BME280;49105;46.046;10.760;2023-02-11T11:22:40;97204.66;;;4.29;47.78
63019;BME280;49105;46.046;10.760;2023-02-11T11:25:21;97203.84;;;4.29;47.64
63019;BME280;49105;46.046;10.760;2023-02-11T11:27:52;97198.59;;;4.29;47.67
63019;BME280;49105;46.046;10.760;2023-02-11T11:30:18;97184.91;;;4.33;47.40
63019;BME280;49105;46.046;10.760;2023-02-11T11:32:44;97180.09;;;4.43;47.36
63019;BME280;49105;46.046;10.760;2023-02-11T11:35:24;97173.69;;;4.53;47.27
63019;BME280;49105;46.046;10.760;2023-02-11T11:37:56;97171.88;;;4.60;47.33
63019;BME280;49105;46.046;10.760;2023-02-11T11:40:27;97169.25;;;4.60;46.91
63019;BME280;49105;46.046;10.760;2023-02-11T11:43:17;97159.63;;;4.67;46.85
63019;BME280;49105;46.046;10.760;2023-02-11T11:45:57;97154.78;;;4.70;46.53
63019;BME280;49105;46.046;10.760;2023-02-11T11:48:47;97148.31;;;4.73;46.63
63019;BME280;49105;46.046;10.760;2023-02-11T11:51:12;97140.69;;;4.78;46.44
63019;BME280;49105;46.046;10.760;2023-02-11T11:56:22;97140.09;;;4.96;45.74
63019;BME280;49105;46.046;10.760;2023-02-11T11:58:49;97131.84;;;4.99;44.16
63019;BME280;49105;46.046;10.760;2023-02-11T12:12:00;97110.41;;;5.62;44.51
63019;BME280;49105;46.046;10.760;2023-02-11T12:17:56;97101.50;;;5.76;44.05
63019;BME280;49105;46.046;10.760;2023-02-11T12:26:16;97093.59;;;5.83;43.26
63019;BME280;49105;46.046;10.760;2023-02-11T12:31:39;97085.69;;;5.96;43.12
63019;BME280;49105;46.046;10.760;2023-02-11T12:34:41;97084.88;;;6.02;43.03
63019;BME280;49105;46.046;10.760;2023-02-11T12:56:56;97040.19;;;6.47;42.18
63019;BME280;49105;46.046;10.760;2023-02-11T13:02:00;97035.50;;;6.81;42.05
63019;BME280;49105;46.046;10.760;2023-02-11T13:04:38;97035.78;;;6.97;41.47
63019;BME280;49105;46.046;10.760;2023-02-11T13:07:13;97028.78;;;7.10;41.72
63019;BME280;49105;46.046;10.760;2023-02-11T13:10:02;97024.13;;;7.12;41.54
63019;BME280;49105;46.046;10.760;2023-02-11T13:12:31;97019.44;;;7.14;41.57
63019;BME280;49105;46.046;10.760;2023-02-11T13:15:16;97014.16;;;7.14;41.63
63019;BME280;49105;46.046;10.760;2023-02-11T13:17:59;97014.56;;;7.17;41.67
63019;BME280;49105;46.046;10.760;2023-02-11T13:20:42;97016.94;;;7.19;41.39
63019;BME280;49105;46.046;10.760;2023-02-11T13:26:14;97006.56;;;7.24;41.58
63019;BME280;49105;46.046;10.760;2023-02-11T13:29:11;97001.53;;;7.22;41.54
63019;BME280;49105;46.046;10.760;2023-02-11T13:31:40;96997.88;;;7.24;41.46
63019;BME280;49105;46.046;10.760;2023-02-11T13:37:20;96998.47;;;7.44;40.81
63019;BME280;49105;46.046;10.760;2023-02-11T13:42:30;96996.88;;;7.43;40.84
63019;BME280;49105;46.046;10.760;2023-02-11T13:44:57;96995.84;;;7.44;40.82
63019;BME280;49105;46.046;10.760;2023-02-11T13:47:30;96993.94;;;7.51;40.79
63019;BME280;49105;46.046;10.760;2023-02-11T13:49:57;96991.25;;;7.58;40.56
63019;BME280;49105;46.046;10.760;2023-02-11T13:52:24;96989.00;;;7.61;40.56
63019;BME280;49105;46.046;10.760;2023-02-11T13:54:53;96986.00;;;7.58;40.69
63019;BME280;49105;46.046;10.760;2023-02-11T14:02:30;96982.44;;;7.64;40.26
63019;BME280;49105;46.046;10.760;2023-02-11T14:05:22;96980.41;;;7.66;40.08
63019;BME280;49105;46.046;10.760;2023-02-11T14:10:53;96981.28;;;7.60;39.91
63019;BME280;49105;46.046;10.760;2023-02-11T14:13:29;96972.94;;;7.63;39.71
63019;BME280;49105;46.046;10.760;2023-02-11T14:16:14;96972.94;;;7.63;39.66
63019;BME280;49105;46.046;10.760;2023-02-11T14:21:32;96979.53;;;7.72;39.40
63019;BME280;49105;46.046;10.760;2023-02-11T14:31:56;96963.56;;;7.49;38.96
63019;BME280;49105;46.046;10.760;2023-02-11T14:37:32;96966.16;;;7.37;39.37
63019;BME280;49105;46.046;10.760;2023-02-11T14:40:13;96965.31;;;7.36;39.25
63019;BME280;49105;46.046;10.760;2023-02-11T14:42:42;96968.63;;;7.32;39.25
63019;BME280;49105;46.046;10.760;2023-02-11T14:45:10;96975.94;;;7.30;39.41
63019;BME280;49105;46.046;10.760;2023-02-11T14:47:43;96967.06;;;7.24;39.22
63019;BME280;49105;46.046;10.760;2023-02-11T14:53:06;96971.31;;;7.07;39.25
63019;BME280;49105;46.046;10.760;2023-02-11T14:55:40;96965.88;;;7.02;39.04
63019;BME280;49105;46.046;10.760;2023-02-11T15:05:55;96963.69;;;6.74;39.25
63019;BME280;49105;46.046;10.760;2023-02-11T15:08:21;96959.31;;;6.67;39.32
63019;BME280;49105;46.046;10.760;2023-02-11T15:10:46;96961.19;;;6.60;39.88
63019;BME280;49105;46.046;10.760;2023-02-11T15:13:18;96954.78;;;6.50;39.90
63019;BME280;49105;46.046;10.760;2023-02-11T15:15:44;96959.50;;;6.41;40.05
63019;BME280;49105;46.046;10.760;2023-02-11T15:18:19;96952.63;;;6.40;39.96
63019;BME280;49105;46.046;10.760;2023-02-11T15:20:47;96961.75;;;6.37;39.94
63019;BME280;49105;46.046;10.760;2023-02-11T15:23:25;96955.94;;;6.29;40.18
63019;BME280;49105;46.046;10.760;2023-02-11T15:25:51;96954.16;;;6.22;40.26
63019;BME280;49105;46.046;10.760;2023-02-11T15:28:27;96949.56;;;6.18;40.41
63019;BME280;49105;46.046;10.760;2023-02-11T15:31:04;96952.81;;;6.13;40.47
63019;BME280;49105;46.046;10.760;2023-02-11T15:33:31;96957.25;;;6.13;40.49